sensor_id;sensor_type;location;lat;lon;timestamp;temperature;humidity
52615;DHT22;38508;53.158;6.614;2023-05-28T00:01:59;14.60;99.90
52615;DHT22;38508;53.158;6.614;2023-05-28T00:04:24;14.70;99.90
52615;DHT22;38508;53.158;6.614;2023-05-28T00:06:53;14.70;99.90
52615;DHT22;38508;53.158;6.614;2023-05-28T00:09:21;14.70;99.90
52615;DHT22;38508;53.158;6.614;2023-05-28T00:11:47;14.80;99.90
52615;DHT22;38508;53.158;6.614;2023-05-28T00:14:13;14.80;99.90
52615;DHT22;38508;53.158;6.614;2023-05-28T00:16:39;14.80;99.90
52615;DHT22;38508;53.158;6.614;2023-05-28T00:19:06;14.80;99.90
52615;DHT22;38508;53.158;6.614;2023-05-28T00:21:32;14.70;99.90
52615;DHT22;38508;53.158;6.614;2023-05-28T00:23:59;14.80;99.90
52615;DHT22;38508;53.158;6.614;2023-05-28T00:26:25;14.80;99.90
52615;DHT22;38508;53.158;6.614;2023-05-28T00:28:52;14.80;99.90
52615;DHT22;38508;53.158;6.614;2023-05-28T00:31:18;14.80;99.90
52615;DHT22;38508;53.158;6.614;2023-05-28T00:33:43;14.80;99.90
52615;DHT22;38508;53.158;6.614;2023-05-28T00:36:10;14.90;99.90
52615;DHT22;38508;53.158;6.614;2023-05-28T00:38:37;14.90;99.90
52615;DHT22;38508;53.158;6.614;2023-05-28T00:41:03;14.80;99.90
52615;DHT22;38508;53.158;6.614;2023-05-28T00:43:28;14.80;99.90
52615;DHT22;38508;53.158;6.614;2023-05-28T00:45:57;14.80;99.90
52615;DHT22;38508;53.158;6.614;2023-05-28T00:48:23;14.80;99.90
52615;DHT22;38508;53.158;6.614;2023-05-28T00:50:49;14.80;99.90
52615;DHT22;38508;53.158;6.614;2023-05-28T00:53:15;14.80;99.90
52615;DHT22;38508;53.158;6.614;2023-05-28T00:55:41;14.80;99.90
52615;DHT22;38508;53.158;6.614;2023-05-28T00:58:07;14.80;99.90
52615;DHT22;38508;53.158;6.614;2023-05-28T01:00:36;14.80;99.90
52615;DHT22;38508;53.158;6.614;2023-05-28T01:03:05;14.80;99.90
52615;DHT22;38508;53.158;6.614;2023-05-28T01:05:31;14.80;99.90
52615;DHT22;38508;53.158;6.614;2023-05-28T01:08:01;14.80;99.90
52615;DHT22;38508;53.158;6.614;2023-05-28T01:10:28;14.90;99.90
52615;DHT22;38508;53.158;6.614;2023-05-28T01:12:54;14.90;99.90
52615;DHT22;38508;53.158;6.614;2023-05-28T01:15:22;14.80;99.90
52615;DHT22;38508;53.158;6.614;2023-05-28T01:17:49;14.70;99.90
52615;DHT22;38508;53.158;6.614;2023-05-28T01:20:15;14.80;99.90
52615;DHT22;38508;53.158;6.614;2023-05-28T01:22:53;14.80;99.90
52615;DHT22;38508;53.158;6.614;2023-05-28T01:25:20;14.80;99.90
52615;DHT22;38508;53.158;6.614;2023-05-28T01:27:47;14.70;99.90
52615;DHT22;38508;53.158;6.614;2023-05-28T01:30:12;14.70;99.90
52615;DHT22;38508;53.158;6.614;2023-05-28T01:32:38;14.70;99.90
52615;DHT22;38508;53.158;6.614;2023-05-28T01:35:05;14.70;99.90
52615;DHT22;38508;53.158;6.614;2023-05-28T01:37:32;14.70;99.90
52615;DHT22;38508;53.158;6.614;2023-05-28T01:40:00;14.70;99.90
52615;DHT22;38508;53.158;6.614;2023-05-28T01:42:29;14.70;99.90
52615;DHT22;38508;53.158;6.614;2023-05-28T01:44:56;14.70;99.90
52615;DHT22;38508;53.158;6.614;2023-05-28T01:47:23;14.70;99.90
52615;DHT22;38508;53.158;6.614;2023-05-28T01:49:49;14.70;99.90
52615;DHT22;38508;53.158;6.614;2023-05-28T01:52:16;14.70;99.90
52615;DHT22;38508;53.158;6.614;2023-05-28T01:54:42;14.70;99.90
52615;DHT22;38508;53.158;6.614;2023-05-28T01:57:07;14.70;99.90
52615;DHT22;38508;53.158;6.614;2023-05-28T01:59:33;14.70;99.90
52615;DHT22;38508;53.158;6.614;2023-05-28T02:01:59;14.70;99.90
52615;DHT22;38508;53.158;6.614;2023-05-28T02:04:24;14.70;99.90
52615;DHT22;38508;53.158;6.614;2023-05-28T02:06:50;14.60;99.90
52615;DHT22;38508;53.158;6.614;2023-05-28T02:09:16;14.70;99.90
52615;DHT22;38508;53.158;6.614;2023-05-28T02:11:42;14.70;99.90
52615;DHT22;38508;53.158;6.614;2023-05-28T02:14:08;14.70;99.90
52615;DHT22;38508;53.158;6.614;2023-05-28T02:16:34;14.70;99.90
52615;DHT22;38508;53.158;6.614;2023-05-28T02:19:00;14.70;99.90
52615;DHT22;38508;53.158;6.614;2023-05-28T02:21:26;14.70;99.90
52615;DHT22;38508;53.158;6.614;2023-05-28T02:23:53;14.70;99.90
52615;DHT22;38508;53.158;6.614;2023-05-28T02:26:20;14.60;99.90
52615;DHT22;38508;53.158;6.614;2023-05-28T02:28:47;14.60;99.90
52615;DHT22;38508;53.158;6.614;2023-05-28T02:31:13;14.60;99.90
52615;DHT22;38508;53.158;6.614;2023-05-28T02:33:40;14.60;99.90
52615;DHT22;38508;53.158;6.614;2023-05-28T02:36:07;14.60;99.90
52615;DHT22;38508;53.158;6.614;2023-05-28T02:38:34;14.60;99.90
52615;DHT22;38508;53.158;6.614;2023-05-28T02:41:00;14.60;99.90
52615;DHT22;38508;53.158;6.614;2023-05-28T02:43:26;14.60;99.90
52615;DHT22;38508;53.158;6.614;2023-05-28T02:45:51;14.60;99.90
52615;DHT22;38508;53.158;6.614;2023-05-28T02:48:17;14.60;99.90
52615;DHT22;38508;53.158;6.614;2023-05-28T02:50:42;14.70;99.90
52615;DHT22;38508;53.158;6.614;2023-05-28T02:53:08;14.60;99.90
52615;DHT22;38508;53.158;6.614;2023-05-28T02:55:34;14.60;99.90
52615;DHT22;38508;53.158;6.614;2023-05-28T02:57:59;14.70;99.90
52615;DHT22;38508;53.158;6.614;2023-05-28T03:00:25;14.60;99.90
52615;DHT22;38508;53.158;6.614;2023-05-28T03:02:51;14.50;99.90
52615;DHT22;38508;53.158;6.614;2023-05-28T03:05:16;14.50;99.90
52615;DHT22;38508;53.158;6.614;2023-05-28T03:07:42;14.60;99.90
52615;DHT22;38508;53.158;6.614;2023-05-28T03:10:08;14.60;99.90
52615;DHT22;38508;53.158;6.614;2023-05-28T03:12:34;14.50;99.90
52615;DHT22;38508;53.158;6.614;2023-05-28T03:15:00;14.50;99.90
52615;DHT22;38508;53.158;6.614;2023-05-28T03:17:25;14.50;99.90
52615;DHT22;38508;53.158;6.614;2023-05-28T03:19:51;14.50;99.90
52615;DHT22;38508;53.158;6.614;2023-05-28T03:22:17;14.60;99.90
52615;DHT22;38508;53.158;6.614;2023-05-28T03:24:42;14.50;99.90
52615;DHT22;38508;53.158;6.614;2023-05-28T03:27:08;14.50;99.90
52615;DHT22;38508;53.158;6.614;2023-05-28T03:29:34;14.50;99.90
52615;DHT22;38508;53.158;6.614;2023-05-28T03:32:00;14.60;99.90
52615;DHT22;38508;53.158;6.614;2023-05-28T03:34:25;14.60;99.90
52615;DHT22;38508;53.158;6.614;2023-05-28T03:36:51;14.50;99.90
52615;DHT22;38508;53.158;6.614;2023-05-28T03:39:17;14.50;99.90
52615;DHT22;38508;53.158;6.614;2023-05-28T03:41:42;14.40;99.90
52615;DHT22;38508;53.158;6.614;2023-05-28T03:44:11;14.30;99.90
52615;DHT22;38508;53.158;6.614;2023-05-28T03:46:37;14.30;99.90
52615;DHT22;38508;53.158;6.614;2023-05-28T03:49:03;14.30;99.90
52615;DHT22;38508;53.158;6.614;2023-05-28T03:51:28;14.30;99.90
52615;DHT22;38508;53.158;6.614;2023-05-28T03:53:54;14.20;99.90
52615;DHT22;38508;53.158;6.614;2023-05-28T03:56:20;14.20;99.90
52615;DHT22;38508;53.158;6.614;2023-05-28T03:58:46;14.20;99.90
52615;DHT22;38508;53.158;6.614;2023-05-28T04:01:11;14.20;99.90
52615;DHT22;38508;53.158;6.614;2023-05-28T04:03:38;14.30;99.90
52615;DHT22;38508;53.158;6.614;2023-05-28T04:06:04;14.30;99.90
52615;DHT22;38508;53.158;6.614;2023-05-28T04:08:29;14.30;99.90
52615;DHT22;38508;53.158;6.614;2023-05-28T04:10:55;14.30;99.90
52615;DHT22;38508;53.158;6.614;2023-05-28T04:13:21;14.30;99.90
52615;DHT22;38508;53.158;6.614;2023-05-28T04:15:47;14.30;99.90
52615;DHT22;38508;53.158;6.614;2023-05-28T04:18:13;14.30;99.90
52615;DHT22;38508;53.158;6.614;2023-05-28T04:20:39;14.30;99.90
52615;DHT22;38508;53.158;6.614;2023-05-28T04:23:04;14.40;99.90
52615;DHT22;38508;53.158;6.614;2023-05-28T04:25:31;14.50;99.90
52615;DHT22;38508;53.158;6.614;2023-05-28T04:27:57;14.50;99.90
52615;DHT22;38508;53.158;6.614;2023-05-28T04:30:26;14.50;99.90
52615;DHT22;38508;53.158;6.614;2023-05-28T04:32:52;14.50;99.90
52615;DHT22;38508;53.158;6.614;2023-05-28T04:35:18;14.50;99.90
52615;DHT22;38508;53.158;6.614;2023-05-28T04:37:44;14.50;99.90
52615;DHT22;38508;53.158;6.614;2023-05-28T04:40:10;14.50;99.90
52615;DHT22;38508;53.158;6.614;2023-05-28T04:42:39;14.50;99.90
52615;DHT22;38508;53.158;6.614;2023-05-28T04:45:13;14.50;99.90
52615;DHT22;38508;53.158;6.614;2023-05-28T04:47:39;14.50;99.90
52615;DHT22;38508;53.158;6.614;2023-05-28T04:50:05;14.60;99.90
52615;DHT22;38508;53.158;6.614;2023-05-28T04:52:31;14.70;99.90
52615;DHT22;38508;53.158;6.614;2023-05-28T04:54:58;14.70;99.90
52615;DHT22;38508;53.158;6.614;2023-05-28T04:57:25;14.70;99.90
52615;DHT22;38508;53.158;6.614;2023-05-28T04:59:51;14.80;99.90
52615;DHT22;38508;53.158;6.614;2023-05-28T05:02:17;14.80;99.90
52615;DHT22;38508;53.158;6.614;2023-05-28T05:04:44;14.80;99.90
52615;DHT22;38508;53.158;6.614;2023-05-28T05:07:13;14.80;99.90
52615;DHT22;38508;53.158;6.614;2023-05-28T05:09:39;14.90;99.90
52615;DHT22;38508;53.158;6.614;2023-05-28T05:12:05;15.00;99.90
52615;DHT22;38508;53.158;6.614;2023-05-28T05:14:31;15.10;99.90
52615;DHT22;38508;53.158;6.614;2023-05-28T05:16:57;15.10;99.90
52615;DHT22;38508;53.158;6.614;2023-05-28T05:19:23;15.00;99.90
52615;DHT22;38508;53.158;6.614;2023-05-28T05:21:49;15.10;99.90
52615;DHT22;38508;53.158;6.614;2023-05-28T05:24:14;14.90;99.90
52615;DHT22;38508;53.158;6.614;2023-05-28T05:26:40;14.80;99.90
52615;DHT22;38508;53.158;6.614;2023-05-28T05:29:06;14.80;99.90
52615;DHT22;38508;53.158;6.614;2023-05-28T05:31:31;14.80;99.90
52615;DHT22;38508;53.158;6.614;2023-05-28T05:33:57;14.80;99.90
52615;DHT22;38508;53.158;6.614;2023-05-28T05:36:23;15.00;99.90
52615;DHT22;38508;53.158;6.614;2023-05-28T05:38:48;15.20;99.90
52615;DHT22;38508;53.158;6.614;2023-05-28T05:41:14;15.40;99.90
52615;DHT22;38508;53.158;6.614;2023-05-28T05:43:40;15.50;99.90
52615;DHT22;38508;53.158;6.614;2023-05-28T05:46:05;15.60;99.90
52615;DHT22;38508;53.158;6.614;2023-05-28T05:48:31;15.70;99.90
52615;DHT22;38508;53.158;6.614;2023-05-28T05:50:56;15.60;99.90
52615;DHT22;38508;53.158;6.614;2023-05-28T05:53:24;15.50;99.90
52615;DHT22;38508;53.158;6.614;2023-05-28T05:55:50;15.70;99.90
52615;DHT22;38508;53.158;6.614;2023-05-28T05:58:16;15.80;99.90
52615;DHT22;38508;53.158;6.614;2023-05-28T06:00:42;15.90;99.90
52615;DHT22;38508;53.158;6.614;2023-05-28T06:03:09;15.80;99.90
52615;DHT22;38508;53.158;6.614;2023-05-28T06:05:35;16.00;99.90
52615;DHT22;38508;53.158;6.614;2023-05-28T06:08:02;16.10;99.90
52615;DHT22;38508;53.158;6.614;2023-05-28T06:10:28;16.20;99.90
52615;DHT22;38508;53.158;6.614;2023-05-28T06:12:55;16.30;99.90
52615;DHT22;38508;53.158;6.614;2023-05-28T06:15:21;16.10;99.90
52615;DHT22;38508;53.158;6.614;2023-05-28T06:17:47;16.00;99.90
52615;DHT22;38508;53.158;6.614;2023-05-28T06:20:13;15.90;99.90
52615;DHT22;38508;53.158;6.614;2023-05-28T06:22:39;15.90;99.90
52615;DHT22;38508;53.158;6.614;2023-05-28T06:25:06;16.00;99.90
52615;DHT22;38508;53.158;6.614;2023-05-28T06:27:33;16.20;99.90
52615;DHT22;38508;53.158;6.614;2023-05-28T06:30:01;16.10;99.90
52615;DHT22;38508;53.158;6.614;2023-05-28T06:32:27;16.00;99.90
52615;DHT22;38508;53.158;6.614;2023-05-28T06:34:53;16.00;99.90
52615;DHT22;38508;53.158;6.614;2023-05-28T06:37:18;16.10;99.90
52615;DHT22;38508;53.158;6.614;2023-05-28T06:39:44;16.10;99.90
52615;DHT22;38508;53.158;6.614;2023-05-28T06:42:10;16.10;99.90
52615;DHT22;38508;53.158;6.614;2023-05-28T06:44:35;16.30;99.90
52615;DHT22;38508;53.158;6.614;2023-05-28T06:47:01;16.50;99.90
52615;DHT22;38508;53.158;6.614;2023-05-28T06:49:27;16.60;99.90
52615;DHT22;38508;53.158;6.614;2023-05-28T06:51:53;16.70;99.90
52615;DHT22;38508;53.158;6.614;2023-05-28T06:54:18;16.70;99.90
52615;DHT22;38508;53.158;6.614;2023-05-28T06:56:44;16.60;99.90
52615;DHT22;38508;53.158;6.614;2023-05-28T06:59:09;16.80;99.90
52615;DHT22;38508;53.158;6.614;2023-05-28T07:01:35;16.90;99.90
52615;DHT22;38508;53.158;6.614;2023-05-28T07:04:01;16.70;99.90
52615;DHT22;38508;53.158;6.614;2023-05-28T07:06:27;16.60;99.90
52615;DHT22;38508;53.158;6.614;2023-05-28T07:08:52;16.60;99.90
52615;DHT22;38508;53.158;6.614;2023-05-28T07:11:18;16.80;99.90
52615;DHT22;38508;53.158;6.614;2023-05-28T07:13:44;16.80;99.90
52615;DHT22;38508;53.158;6.614;2023-05-28T07:16:10;17.00;99.90
52615;DHT22;38508;53.158;6.614;2023-05-28T07:18:36;17.10;99.90
52615;DHT22;38508;53.158;6.614;2023-05-28T07:21:01;17.30;99.90
52615;DHT22;38508;53.158;6.614;2023-05-28T07:23:28;17.30;99.90
52615;DHT22;38508;53.158;6.614;2023-05-28T07:25:54;17.30;99.90
52615;DHT22;38508;53.158;6.614;2023-05-28T07:28:19;17.30;99.90
52615;DHT22;38508;53.158;6.614;2023-05-28T07:30:45;17.10;99.90
52615;DHT22;38508;53.158;6.614;2023-05-28T07:33:11;17.10;99.90
52615;DHT22;38508;53.158;6.614;2023-05-28T07:35:37;17.20;99.90
52615;DHT22;38508;53.158;6.614;2023-05-28T07:38:03;17.40;99.90
52615;DHT22;38508;53.158;6.614;2023-05-28T07:40:28;17.70;99.90
52615;DHT22;38508;53.158;6.614;2023-05-28T07:42:54;17.80;99.90
52615;DHT22;38508;53.158;6.614;2023-05-28T07:45:20;17.90;99.90
52615;DHT22;38508;53.158;6.614;2023-05-28T07:47:46;18.10;99.90
52615;DHT22;38508;53.158;6.614;2023-05-28T07:50:11;18.10;99.90
52615;DHT22;38508;53.158;6.614;2023-05-28T07:52:37;17.90;99.90
52615;DHT22;38508;53.158;6.614;2023-05-28T07:55:06;17.80;99.90
52615;DHT22;38508;53.158;6.614;2023-05-28T07:57:33;18.10;99.90
52615;DHT22;38508;53.158;6.614;2023-05-28T07:59:59;18.10;99.90
52615;DHT22;38508;53.158;6.614;2023-05-28T08:02:26;18.20;99.90
52615;DHT22;38508;53.158;6.614;2023-05-28T08:04:52;18.10;99.90
52615;DHT22;38508;53.158;6.614;2023-05-28T08:07:19;18.10;99.90
52615;DHT22;38508;53.158;6.614;2023-05-28T08:09:45;18.20;99.90
52615;DHT22;38508;53.158;6.614;2023-05-28T08:12:10;18.10;99.90
52615;DHT22;38508;53.158;6.614;2023-05-28T08:14:36;18.30;99.90
52615;DHT22;38508;53.158;6.614;2023-05-28T08:17:02;18.30;99.90
52615;DHT22;38508;53.158;6.614;2023-05-28T08:19:28;18.30;99.90
52615;DHT22;38508;53.158;6.614;2023-05-28T08:21:53;18.30;99.90
52615;DHT22;38508;53.158;6.614;2023-05-28T08:24:19;18.60;99.90
52615;DHT22;38508;53.158;6.614;2023-05-28T08:26:46;18.80;99.90
52615;DHT22;38508;53.158;6.614;2023-05-28T08:29:11;18.70;99.90
52615;DHT22;38508;53.158;6.614;2023-05-28T08:31:37;18.70;99.90
52615;DHT22;38508;53.158;6.614;2023-05-28T08:34:03;19.00;99.90
52615;DHT22;38508;53.158;6.614;2023-05-28T08:36:29;19.10;99.90
52615;DHT22;38508;53.158;6.614;2023-05-28T08:38:55;19.20;99.90
52615;DHT22;38508;53.158;6.614;2023-05-28T08:41:21;19.40;99.90
52615;DHT22;38508;53.158;6.614;2023-05-28T08:43:47;19.40;99.90
52615;DHT22;38508;53.158;6.614;2023-05-28T08:46:13;19.40;99.90
52615;DHT22;38508;53.158;6.614;2023-05-28T08:48:41;19.30;99.90
52615;DHT22;38508;53.158;6.614;2023-05-28T08:51:07;19.50;99.90
52615;DHT22;38508;53.158;6.614;2023-05-28T08:53:39;19.20;99.90
52615;DHT22;38508;53.158;6.614;2023-05-28T08:56:06;19.00;99.90
52615;DHT22;38508;53.158;6.614;2023-05-28T08:58:34;19.30;99.90
52615;DHT22;38508;53.158;6.614;2023-05-28T09:01:06;19.60;99.90
52615;DHT22;38508;53.158;6.614;2023-05-28T09:03:32;19.80;99.90
52615;DHT22;38508;53.158;6.614;2023-05-28T09:05:58;19.90;99.90
52615;DHT22;38508;53.158;6.614;2023-05-28T09:08:24;19.70;99.90
52615;DHT22;38508;53.158;6.614;2023-05-28T09:10:50;19.90;99.90
52615;DHT22;38508;53.158;6.614;2023-05-28T09:13:19;19.90;99.90
52615;DHT22;38508;53.158;6.614;2023-05-28T09:15:53;19.60;99.90
52615;DHT22;38508;53.158;6.614;2023-05-28T09:18:22;19.30;99.90
52615;DHT22;38508;53.158;6.614;2023-05-28T09:20:51;19.10;99.90
52615;DHT22;38508;53.158;6.614;2023-05-28T09:23:18;19.30;99.90
52615;DHT22;38508;53.158;6.614;2023-05-28T09:25:44;19.20;99.90
52615;DHT22;38508;53.158;6.614;2023-05-28T09:28:13;19.30;99.90
52615;DHT22;38508;53.158;6.614;2023-05-28T09:30:39;19.30;99.90
52615;DHT22;38508;53.158;6.614;2023-05-28T09:33:06;19.40;99.90
52615;DHT22;38508;53.158;6.614;2023-05-28T09:35:33;19.50;99.90
52615;DHT22;38508;53.158;6.614;2023-05-28T09:38:10;19.70;99.90
52615;DHT22;38508;53.158;6.614;2023-05-28T09:40:42;19.90;99.90
52615;DHT22;38508;53.158;6.614;2023-05-28T09:43:08;20.40;99.90
52615;DHT22;38508;53.158;6.614;2023-05-28T09:45:35;20.60;99.90
52615;DHT22;38508;53.158;6.614;2023-05-28T09:48:01;20.60;99.90
52615;DHT22;38508;53.158;6.614;2023-05-28T09:50:27;20.20;99.90
52615;DHT22;38508;53.158;6.614;2023-05-28T09:52:57;20.40;99.90
52615;DHT22;38508;53.158;6.614;2023-05-28T09:55:27;20.80;99.90
52615;DHT22;38508;53.158;6.614;2023-05-28T09:58:06;21.30;99.90
52615;DHT22;38508;53.158;6.614;2023-05-28T10:00:41;21.30;99.90
52615;DHT22;38508;53.158;6.614;2023-05-28T10:06:04;22.00;99.90
52615;DHT22;38508;53.158;6.614;2023-05-28T10:08:33;22.10;99.90
52615;DHT22;38508;53.158;6.614;2023-05-28T10:11:05;22.20;99.90
52615;DHT22;38508;53.158;6.614;2023-05-28T10:13:34;21.80;99.90
52615;DHT22;38508;53.158;6.614;2023-05-28T10:16:00;21.60;99.90
52615;DHT22;38508;53.158;6.614;2023-05-28T10:18:26;21.60;99.90
52615;DHT22;38508;53.158;6.614;2023-05-28T10:20:53;21.30;99.90
52615;DHT22;38508;53.158;6.614;2023-05-28T10:23:20;21.10;99.90
52615;DHT22;38508;53.158;6.614;2023-05-28T10:25:47;21.40;99.90
52615;DHT22;38508;53.158;6.614;2023-05-28T10:28:16;21.80;99.90
52615;DHT22;38508;53.158;6.614;2023-05-28T10:30:42;22.10;99.90
52615;DHT22;38508;53.158;6.614;2023-05-28T10:33:09;22.40;99.90
52615;DHT22;38508;53.158;6.614;2023-05-28T10:35:37;22.40;99.90
52615;DHT22;38508;53.158;6.614;2023-05-28T10:38:15;22.20;99.90
52615;DHT22;38508;53.158;6.614;2023-05-28T10:40:40;22.30;99.90
52615;DHT22;38508;53.158;6.614;2023-05-28T10:49:19;22.20;99.90
52615;DHT22;38508;53.158;6.614;2023-05-28T10:57:13;22.40;99.90
52615;DHT22;38508;53.158;6.614;2023-05-28T11:02:15;22.50;99.90
52615;DHT22;38508;53.158;6.614;2023-05-28T11:04:41;22.80;99.90
52615;DHT22;38508;53.158;6.614;2023-05-28T11:07:07;22.90;99.90
52615;DHT22;38508;53.158;6.614;2023-05-28T11:09:33;22.90;99.90
52615;DHT22;38508;53.158;6.614;2023-05-28T11:12:00;23.00;99.90
52615;DHT22;38508;53.158;6.614;2023-05-28T11:14:45;23.00;99.90
52615;DHT22;38508;53.158;6.614;2023-05-28T11:17:11;23.10;99.90
52615;DHT22;38508;53.158;6.614;2023-05-28T11:19:44;22.90;99.90
52615;DHT22;38508;53.158;6.614;2023-05-28T11:22:10;22.90;99.90
52615;DHT22;38508;53.158;6.614;2023-05-28T11:24:59;22.90;99.90
52615;DHT22;38508;53.158;6.614;2023-05-28T11:27:29;22.90;99.90
52615;DHT22;38508;53.158;6.614;2023-05-28T11:29:58;22.80;99.90
52615;DHT22;38508;53.158;6.614;2023-05-28T11:32:24;23.00;99.90
52615;DHT22;38508;53.158;6.614;2023-05-28T11:34:52;22.90;99.90
52615;DHT22;38508;53.158;6.614;2023-05-28T11:37:29;23.00;99.90
52615;DHT22;38508;53.158;6.614;2023-05-28T11:39:56;23.20;99.90
52615;DHT22;38508;53.158;6.614;2023-05-28T11:42:23;23.70;99.90
52615;DHT22;38508;53.158;6.614;2023-05-28T11:44:50;23.80;99.90
52615;DHT22;38508;53.158;6.614;2023-05-28T11:47:20;24.10;99.90
52615;DHT22;38508;53.158;6.614;2023-05-28T11:49:46;24.30;99.90
52615;DHT22;38508;53.158;6.614;2023-05-28T11:52:13;24.50;99.90
52615;DHT22;38508;53.158;6.614;2023-05-28T11:54:40;24.10;99.90
52615;DHT22;38508;53.158;6.614;2023-05-28T11:57:09;23.90;99.90
52615;DHT22;38508;53.158;6.614;2023-05-28T11:59:35;23.60;99.90
52615;DHT22;38508;53.158;6.614;2023-05-28T12:02:15;23.70;99.90
52615;DHT22;38508;53.158;6.614;2023-05-28T12:04:58;23.80;99.90
52615;DHT22;38508;53.158;6.614;2023-05-28T12:07:34;23.90;99.90
52615;DHT22;38508;53.158;6.614;2023-05-28T12:10:08;23.80;99.90
52615;DHT22;38508;53.158;6.614;2023-05-28T12:12:39;23.50;99.90
52615;DHT22;38508;53.158;6.614;2023-05-28T12:15:05;23.30;99.90
52615;DHT22;38508;53.158;6.614;2023-05-28T12:17:36;23.60;99.90
52615;DHT22;38508;53.158;6.614;2023-05-28T12:20:50;23.70;99.90
52615;DHT22;38508;53.158;6.614;2023-05-28T12:23:08;24.00;99.90
52615;DHT22;38508;53.158;6.614;2023-05-28T12:25:44;24.40;99.90
52615;DHT22;38508;53.158;6.614;2023-05-28T12:28:10;24.80;99.90
52615;DHT22;38508;53.158;6.614;2023-05-28T12:30:38;25.00;99.90
52615;DHT22;38508;53.158;6.614;2023-05-28T12:33:05;25.30;99.90
52615;DHT22;38508;53.158;6.614;2023-05-28T12:35:31;25.70;99.90
52615;DHT22;38508;53.158;6.614;2023-05-28T12:37:56;25.60;99.90
52615;DHT22;38508;53.158;6.614;2023-05-28T12:40:22;25.80;99.90
52615;DHT22;38508;53.158;6.614;2023-05-28T12:42:48;26.10;99.90
52615;DHT22;38508;53.158;6.614;2023-05-28T12:45:13;26.20;99.90
52615;DHT22;38508;53.158;6.614;2023-05-28T12:47:39;26.30;99.90
52615;DHT22;38508;53.158;6.614;2023-05-28T12:50:05;26.10;99.90
52615;DHT22;38508;53.158;6.614;2023-05-28T12:52:31;25.90;99.90
52615;DHT22;38508;53.158;6.614;2023-05-28T12:55:01;25.80;99.90
52615;DHT22;38508;53.158;6.614;2023-05-28T12:57:27;25.90;99.90
52615;DHT22;38508;53.158;6.614;2023-05-28T12:59:52;26.10;99.90
52615;DHT22;38508;53.158;6.614;2023-05-28T13:02:18;26.20;99.90
52615;DHT22;38508;53.158;6.614;2023-05-28T13:04:44;26.30;99.90
52615;DHT22;38508;53.158;6.614;2023-05-28T13:07:09;26.30;99.90
52615;DHT22;38508;53.158;6.614;2023-05-28T13:09:35;26.00;99.90
52615;DHT22;38508;53.158;6.614;2023-05-28T13:12:01;26.10;99.90
52615;DHT22;38508;53.158;6.614;2023-05-28T13:14:28;26.00;99.90
52615;DHT22;38508;53.158;6.614;2023-05-28T13:16:54;26.00;99.90
52615;DHT22;38508;53.158;6.614;2023-05-28T13:19:21;26.00;99.90
52615;DHT22;38508;53.158;6.614;2023-05-28T13:21:47;25.60;99.90
52615;DHT22;38508;53.158;6.614;2023-05-28T13:24:12;25.50;99.90
52615;DHT22;38508;53.158;6.614;2023-05-28T13:26:38;25.40;99.90
52615;DHT22;38508;53.158;6.614;2023-05-28T13:29:04;25.60;99.90
52615;DHT22;38508;53.158;6.614;2023-05-28T13:31:31;25.40;99.90
52615;DHT22;38508;53.158;6.614;2023-05-28T13:33:57;25.90;99.90
52615;DHT22;38508;53.158;6.614;2023-05-28T13:36:23;26.30;99.90
52615;DHT22;38508;53.158;6.614;2023-05-28T13:38:49;26.00;99.90
52615;DHT22;38508;53.158;6.614;2023-05-28T13:41:16;26.10;99.90
52615;DHT22;38508;53.158;6.614;2023-05-28T13:43:42;25.70;99.90
52615;DHT22;38508;53.158;6.614;2023-05-28T13:46:08;25.60;99.90
52615;DHT22;38508;53.158;6.614;2023-05-28T13:48:34;25.10;99.90
52615;DHT22;38508;53.158;6.614;2023-05-28T13:51:00;24.80;99.90
52615;DHT22;38508;53.158;6.614;2023-05-28T13:53:27;24.70;99.90
52615;DHT22;38508;53.158;6.614;2023-05-28T13:55:54;25.00;99.90
52615;DHT22;38508;53.158;6.614;2023-05-28T13:58:20;25.60;99.90
52615;DHT22;38508;53.158;6.614;2023-05-28T14:00:45;25.70;99.90
52615;DHT22;38508;53.158;6.614;2023-05-28T14:03:11;25.70;99.90
52615;DHT22;38508;53.158;6.614;2023-05-28T14:05:40;25.90;99.90
52615;DHT22;38508;53.158;6.614;2023-05-28T14:08:09;25.60;99.90
52615;DHT22;38508;53.158;6.614;2023-05-28T14:10:34;25.60;99.90
52615;DHT22;38508;53.158;6.614;2023-05-28T14:13:00;25.70;99.90
52615;DHT22;38508;53.158;6.614;2023-05-28T14:15:26;25.90;99.90
52615;DHT22;38508;53.158;6.614;2023-05-28T14:17:52;25.90;99.90
52615;DHT22;38508;53.158;6.614;2023-05-28T14:20:18;26.20;99.90
52615;DHT22;38508;53.158;6.614;2023-05-28T14:22:43;26.30;99.90
52615;DHT22;38508;53.158;6.614;2023-05-28T14:25:10;26.00;99.90
52615;DHT22;38508;53.158;6.614;2023-05-28T14:27:37;25.80;99.90
52615;DHT22;38508;53.158;6.614;2023-05-28T14:30:03;25.70;99.90
52615;DHT22;38508;53.158;6.614;2023-05-28T14:32:29;25.90;99.90
52615;DHT22;38508;53.158;6.614;2023-05-28T14:34:55;26.30;99.90
52615;DHT22;38508;53.158;6.614;2023-05-28T14:37:21;26.60;99.90
52615;DHT22;38508;53.158;6.614;2023-05-28T14:39:47;26.50;99.90
52615;DHT22;38508;53.158;6.614;2023-05-28T14:42:12;26.60;99.90
52615;DHT22;38508;53.158;6.614;2023-05-28T14:44:38;26.80;99.90
52615;DHT22;38508;53.158;6.614;2023-05-28T14:47:04;26.90;99.90
52615;DHT22;38508;53.158;6.614;2023-05-28T14:49:29;26.20;99.90
52615;DHT22;38508;53.158;6.614;2023-05-28T14:51:56;26.40;99.90
52615;DHT22;38508;53.158;6.614;2023-05-28T14:54:22;26.10;99.90
52615;DHT22;38508;53.158;6.614;2023-05-28T14:56:48;25.50;99.90
52615;DHT22;38508;53.158;6.614;2023-05-28T14:59:14;25.00;99.90
52615;DHT22;38508;53.158;6.614;2023-05-28T15:01:40;24.70;99.90
52615;DHT22;38508;53.158;6.614;2023-05-28T15:04:06;24.90;99.90
52615;DHT22;38508;53.158;6.614;2023-05-28T15:06:31;24.80;99.90
52615;DHT22;38508;53.158;6.614;2023-05-28T15:08:58;24.60;99.90
52615;DHT22;38508;53.158;6.614;2023-05-28T15:11:24;24.50;99.90
52615;DHT22;38508;53.158;6.614;2023-05-28T15:13:51;24.40;99.90
52615;DHT22;38508;53.158;6.614;2023-05-28T15:16:17;24.40;99.90
52615;DHT22;38508;53.158;6.614;2023-05-28T15:18:43;24.10;99.90
52615;DHT22;38508;53.158;6.614;2023-05-28T15:21:09;24.20;99.90
52615;DHT22;38508;53.158;6.614;2023-05-28T15:23:35;24.40;99.90
52615;DHT22;38508;53.158;6.614;2023-05-28T15:26:01;24.40;99.90
52615;DHT22;38508;53.158;6.614;2023-05-28T15:28:27;24.10;99.90
52615;DHT22;38508;53.158;6.614;2023-05-28T15:30:53;24.10;99.90
52615;DHT22;38508;53.158;6.614;2023-05-28T15:33:20;24.00;99.90
52615;DHT22;38508;53.158;6.614;2023-05-28T15:35:46;24.40;99.90
52615;DHT22;38508;53.158;6.614;2023-05-28T15:38:12;24.90;99.90
52615;DHT22;38508;53.158;6.614;2023-05-28T15:40:38;24.70;99.90
52615;DHT22;38508;53.158;6.614;2023-05-28T15:43:04;24.00;99.90
52615;DHT22;38508;53.158;6.614;2023-05-28T15:45:31;24.00;99.90